This is the latest recevied weather packets stored in our database for station/object ALANSN-2. If no packets are shown the sender has not sent any weather packets the latest 10 day(s).
| Time | Temp. | Humidity | Pressure | Rain* | Wind** | Luminosity | Snow |
|---|---|---|---|---|---|---|---|
| 1787618220 | 18.33° C | 87% | 1028.2 hPa | 0 mm | - | 0 W/m² | - |
| 1787617919 | 18.89° C | 85% | 1028 hPa | 0 mm | - | 1 W/m² | - |
| 1787617621 | 18.89° C | 85% | 1028 hPa | 0 mm | - | 1 W/m² | - |
| 1787617320 | 19.44° C | 83% | 1028.1 hPa | 0 mm | - | 3 W/m² | - |
| 1787617020 | 21.11° C | 78% | 1028 hPa | 0 mm | - | 7 W/m² | - |
| 1787616719 | 21.11° C | 78% | 1028 hPa | 0 mm | - | 7 W/m² | - |
| 1787616420 | 21.67° C | 77% | 1027.9 hPa | 0 mm | - | 9 W/m² | - |
| 1787616120 | 22.22° C | 74% | 1027.9 hPa | 0 mm | - | 20 W/m² | - |
| 1787615820 | 22.22° C | 74% | 1027.9 hPa | 0 mm | - | 20 W/m² | - |
| 1787615519 | 22.22° C | 74% | 1028.1 hPa | 0 mm | - | 23 W/m² | - |
| 1787615220 | 22.22° C | 74% | 1027.7 hPa | 0 mm | - | 33 W/m² | - |
| 1787614917 | 22.22° C | 74% | 1027.7 hPa | 0 mm | - | 33 W/m² | - |
| 1787614620 | 22.22° C | 74% | 1027.6 hPa | 0 mm | - | 36 W/m² | - |
| 1787614320 | 22.78° C | 73% | 1027.7 hPa | 0 mm | - | 69 W/m² | - |
| 1787614020 | 22.78° C | 73% | 1027.7 hPa | 0 mm | - | 69 W/m² | - |
| 1787613719 | 22.78° C | 73% | 1027.7 hPa | 0 mm | - | 74 W/m² | - |
| 1787613420 | 22.78° C | 72% | 1027.6 hPa | 0 mm | - | 115 W/m² | - |
| 1787613119 | 22.78° C | 72% | 1027.6 hPa | 0 mm | - | 115 W/m² | - |
| 1787612820 | 22.78° C | 73% | 1027.7 hPa | 0 mm | - | 122 W/m² | - |
| 1787612519 | 22.78° C | 73% | 1027.6 hPa | 0 mm | - | 150 W/m² | - |
| 1787612221 | 23.33° C | 73% | 1027.5 hPa | 0 mm | - | 160 W/m² | - |
| 1787611919 | 23.33° C | 73% | 1027.3 hPa | 0 mm | - | 171 W/m² | - |
| 1787611620 | 23.33° C | 71% | 1027.3 hPa | 0 mm | - | 174 W/m² | - |
| 1787611319 | 22.22° C | 75% | 1027.4 hPa | 0 mm | - | 222 W/m² | - |
| 1787611020 | 22.22° C | 75% | 1027.6 hPa | 0 mm | - | 227 W/m² | - |
* Rain latest hour (hover to see other rain measurements)
** Current wind speed in m/s (hover to see current wind gust speed)